Time;durP1;ratioP1;P1;durP2;ratioP2;P2;SDS_P1;SDS_P2;PMS_P1;PMS_P2;Temp;Humidity;BMP_temperature;BMP_pressure;BME280_temperature;BME280_humidity;BME280_pressure;Samples;Min_cycle;Max_cycle;Signal;HPM_P1;HPM_P2
2022/10/07 00:02:05;;;;;;;5.70;2.13;;;;;;;12.37;80.08;96737.31;5135723;27;20207;-80
2022/10/07 00:04:31;;;;;;;10.53;2.40;;;;;;;12.38;79.74;96742.38;5118745;27;20220;-80
2022/10/07 00:06:56;;;;;;;7.27;2.27;;;;;;;12.40;79.85;96737.88;5099658;27;20695;-80
2022/10/07 00:09:21;;;;;;;7.00;2.10;;;;;;;12.39;80.26;96735.41;5119116;27;20183;-80
2022/10/07 00:11:46;;;;;;;10.03;2.30;;;;;;;12.41;80.12;96738.69;5101190;27;20604;-80
2022/10/07 00:14:12;;;;;;;9.33;2.57;;;;;;;12.40;79.71;96731.84;5118160;27;20198;-80
2022/10/07 00:16:39;;;;;;;7.67;2.17;;;;;;;12.40;79.90;96739.66;5135896;27;20187;-79
2022/10/07 00:19:07;;;;;;;7.50;2.20;;;;;;;12.37;80.42;96737.31;5122274;27;20244;-80
2022/10/07 00:21:34;;;;;;;7.90;2.57;;;;;;;12.37;80.70;96732.09;5115549;27;20203;-80
2022/10/07 00:24:00;;;;;;;8.17;2.47;;;;;;;12.35;81.08;96723.56;5101148;27;20324;-80
2022/10/07 00:26:28;;;;;;;6.63;2.63;;;;;;;12.37;81.36;96719.91;5117295;27;20222;-80
2022/10/07 00:28:53;;;;;;;8.63;2.33;;;;;;;12.38;81.75;96728.53;5106418;27;20200;-79
2022/10/07 00:31:24;;;;;;;5.10;2.37;;;;;;;12.37;81.60;96730.31;5118033;27;20194;-80
2022/10/07 00:33:49;;;;;;;4.70;3.00;;;;;;;12.37;82.08;96721.69;5099103;27;20191;-80
2022/10/07 00:36:19;;;;;;;6.57;2.40;;;;;;;12.34;82.20;96714.94;5117605;27;20183;-80
2022/10/07 00:38:48;;;;;;;10.13;2.70;;;;;;;12.37;82.29;96721.69;5117982;27;20199;-80
2022/10/07 00:41:20;;;;;;;7.63;2.60;;;;;;;12.36;82.65;96713.00;5100869;27;20190;-80
2022/10/07 00:43:46;;;;;;;5.30;1.90;;;;;;;12.36;82.39;96706.97;5115808;27;20178;-80
2022/10/07 00:46:30;;;;;;;5.10;2.40;;;;;;;12.36;83.14;96699.16;5100108;27;20235;-80
2022/10/07 00:49:01;;;;;;;7.77;2.07;;;;;;;12.35;82.48;96713.16;5117394;27;20203;-80
2022/10/07 00:51:27;;;;;;;8.17;2.50;;;;;;;12.35;83.16;96700.13;5112765;27;20176;-80
2022/10/07 00:53:53;;;;;;;7.80;2.60;;;;;;;12.34;82.90;96696.69;5117155;27;20266;-80
2022/10/07 00:56:19;;;;;;;6.90;2.30;;;;;;;12.32;84.03;96695.19;5113484;27;20206;-80
2022/10/07 00:58:47;;;;;;;3.20;2.30;;;;;;;12.34;83.51;96695.88;5108619;27;20238;-80
2022/10/07 01:01:12;;;;;;;7.63;2.30;;;;;;;12.33;83.63;96697.66;5117419;27;20179;-80
2022/10/07 01:03:38;;;;;;;7.77;3.07;;;;;;;12.34;84.13;96685.44;5100253;27;20178;-80
2022/10/07 01:06:04;;;;;;;5.03;1.97;;;;;;;12.29;84.07;96688.47;5099334;27;20210;-80
2022/10/07 01:08:30;;;;;;;5.17;2.20;;;;;;;12.27;84.85;96685.16;5116784;27;20202;-79
2022/10/07 01:11:12;;;;;;;6.03;2.20;;;;;;;12.28;84.90;96678.16;5101411;27;20184;-79
2022/10/07 01:14:10;;;;;;;7.27;2.53;;;;;;;12.30;84.41;96674.47;5100860;27;20741;-79
2022/10/07 01:16:48;;;;;;;6.03;2.77;;;;;;;12.26;84.84;96667.88;5132955;27;20210;-79
2022/10/07 01:19:32;;;;;;;4.43;2.10;;;;;;;12.21;85.33;96670.06;5114126;27;20190;-80
2022/10/07 01:22:10;;;;;;;6.40;2.27;;;;;;;12.24;84.55;96669.78;5100065;27;20279;-80
2022/10/07 01:24:41;;;;;;;5.73;2.10;;;;;;;12.27;84.58;96666.91;5107204;27;20175;-79
2022/10/07 01:27:14;;;;;;;5.70;1.97;;;;;;;12.31;83.48;96657.06;5145999;27;20558;-79
2022/10/07 01:29:54;;;;;;;6.37;2.37;;;;;;;12.29;82.96;96659.00;5116145;27;20179;-80
2022/10/07 01:32:24;;;;;;;5.43;2.17;;;;;;;12.32;82.47;96653.50;5117806;27;20260;-80
2022/10/07 01:34:53;;;;;;;6.43;2.50;;;;;;;12.25;83.26;96649.78;5104694;28;20183;-79
2022/10/07 01:37:18;;;;;;;8.67;2.27;;;;;;;12.26;82.68;96646.22;5113609;27;20303;-80
2022/10/07 01:39:57;;;;;;;6.13;1.97;;;;;;;12.27;82.27;96634.84;5097332;27;20218;-79
2022/10/07 01:42:25;;;;;;;10.17;2.40;;;;;;;12.25;82.08;96639.34;5117017;27;20333;-80
2022/10/07 01:44:53;;;;;;;6.30;2.17;;;;;;;12.26;82.00;96633.19;5089368;27;20262;-79
2022/10/07 01:47:18;;;;;;;7.80;2.10;;;;;;;12.28;81.71;96629.53;5115790;27;20724;-80
2022/10/07 01:49:43;;;;;;;8.70;2.47;;;;;;;12.25;81.80;96613.31;5116789;27;20194;-80
2022/10/07 01:52:28;;;;;;;10.53;2.70;;;;;;;12.29;82.08;96619.94;5116291;27;20222;-81
2022/10/07 01:55:06;;;;;;;7.00;2.43;;;;;;;12.26;81.42;96620.16;5134694;27;20207;-80
2022/10/07 01:57:52;;;;;;;7.03;2.47;;;;;;;12.29;81.14;96612.13;5098604;27;20555;-81
2022/10/07 02:00:18;;;;;;;6.70;2.13;;;;;;;12.29;80.61;96605.13;5124660;27;20179;-80
2022/10/07 02:03:01;;;;;;;8.90;2.30;;;;;;;12.30;79.68;96600.75;5104798;27;20207;-81
2022/10/07 02:05:59;;;;;;;7.80;2.33;;;;;;;12.27;79.98;96600.97;5115394;27;20179;-81
2022/10/07 02:08:50;;;;;;;3.43;2.20;;;;;;;12.32;79.68;96599.63;5115118;27;20260;-80
2022/10/07 02:11:27;;;;;;;5.43;2.07;;;;;;;12.28;78.83;96598.28;5114200;27;20187;-80
2022/10/07 02:14:00;;;;;;;6.97;2.60;;;;;;;12.27;78.71;96595.78;5115000;27;20178;-80
2022/10/07 02:16:34;;;;;;;8.97;1.97;;;;;;;12.25;78.59;96595.91;5113839;27;20630;-81
2022/10/07 02:19:02;;;;;;;6.37;2.20;;;;;;;12.28;78.77;96592.22;5113239;27;20206;-80
2022/10/07 02:21:30;;;;;;;6.27;2.00;;;;;;;12.25;78.26;96593.31;5083201;27;20669;-80
2022/10/07 02:23:56;;;;;;;7.20;2.37;;;;;;;12.25;78.67;96582.88;5100811;27;20187;-80
2022/10/07 02:26:23;;;;;;;5.97;2.43;;;;;;;12.26;78.60;96586.31;5101632;27;20191;-80
2022/10/07 02:28:50;;;;;;;6.57;2.40;;;;;;;12.27;78.46;96580.97;5115260;27;20287;-81
2022/10/07 02:31:16;;;;;;;7.40;2.40;;;;;;;12.35;78.25;96581.13;5095717;27;20191;-80
2022/10/07 02:33:43;;;;;;;7.80;2.30;;;;;;;12.38;77.89;96580.06;5115133;27;20799;-81
2022/10/07 02:36:15;;;;;;;10.77;2.30;;;;;;;12.24;78.72;96578.63;5083108;27;20271;-80
2022/10/07 02:38:41;;;;;;;7.67;2.60;;;;;;;12.20;78.87;96569.47;5100395;27;20294;-81
2022/10/07 02:41:32;;;;;;;4.80;1.87;;;;;;;12.23;78.50;96570.97;5098124;27;20217;-80
2022/10/07 02:44:32;;;;;;;5.43;2.30;;;;;;;12.24;78.77;96568.22;5098512;27;20241;-80
2022/10/07 02:47:09;;;;;;;11.00;2.87;;;;;;;12.17;79.13;96570.53;5034889;28;20221;-80
2022/10/07 02:49:37;;;;;;;6.70;2.73;;;;;;;12.11;79.32;96565.03;5034784;28;20247;-80
2022/10/07 02:52:08;;;;;;;4.63;2.03;;;;;;;12.18;79.39;96573.94;5050250;28;20326;-80
2022/10/07 02:54:38;;;;;;;5.63;2.23;;;;;;;12.18;79.05;96564.34;5029612;28;20193;-79
2022/10/07 02:57:04;;;;;;;5.83;2.17;;;;;;;12.21;79.39;96567.69;5032324;28;20249;-80
2022/10/07 02:59:31;;;;;;;9.57;2.43;;;;;;;12.16;79.53;96555.03;5025309;28;20661;-80
2022/10/07 03:01:57;;;;;;;7.00;2.37;;;;;;;12.10;79.70;96559.03;5033411;28;20217;-80
2022/10/07 03:04:23;;;;;;;9.03;2.50;;;;;;;12.11;79.54;96554.63;5049911;28;20182;-80
2022/10/07 03:06:48;;;;;;;5.30;2.40;;;;;;;12.03;79.69;96552.69;5049013;28;20534;-80
2022/10/07 03:09:14;;;;;;;10.23;2.53;;;;;;;12.15;79.31;96550.78;5029785;28;20707;-79
2022/10/07 03:11:39;;;;;;;7.97;3.00;;;;;;;12.21;78.82;96550.28;5033283;28;20181;-79
2022/10/07 03:14:04;;;;;;;5.57;2.13;;;;;;;12.16;78.72;96548.06;5025613;28;20802;-79
2022/10/07 03:16:30;;;;;;;8.67;3.37;;;;;;;12.13;79.16;96544.91;5044133;28;20642;-79
2022/10/07 03:18:57;;;;;;;5.10;2.30;;;;;;;12.10;79.50;96547.75;5046917;28;20288;-79
2022/10/07 03:21:25;;;;;;;7.83;2.87;;;;;;;12.07;79.82;96548.03;5053718;28;20193;-79
2022/10/07 03:23:51;;;;;;;4.20;2.47;;;;;;;12.09;79.84;96543.50;5095261;28;20208;-79
2022/10/07 03:26:18;;;;;;;5.00;2.43;;;;;;;12.12;80.47;96540.66;5109051;28;20199;-79
2022/10/07 03:28:43;;;;;;;3.63;2.53;;;;;;;12.18;80.80;96534.91;5123749;28;20416;-78
2022/10/07 03:31:10;;;;;;;7.70;2.50;;;;;;;12.12;81.00;96536.28;5097908;28;20198;-79
2022/10/07 03:33:36;;;;;;;5.80;2.77;;;;;;;12.06;81.62;96531.59;5114715;28;20179;-79
2022/10/07 03:36:04;;;;;;;7.70;2.63;;;;;;;12.11;81.62;96532.03;5097784;28;20520;-78
2022/10/07 03:38:29;;;;;;;7.40;2.90;;;;;;;12.08;82.43;96524.44;5097613;28;20207;-80
2022/10/07 03:40:55;;;;;;;5.13;2.40;;;;;;;12.12;82.47;96528.47;5101110;28;20279;-80
2022/10/07 03:43:20;;;;;;;8.37;2.67;;;;;;;12.10;82.47;96521.72;5104412;28;20257;-80
2022/10/07 03:45:49;;;;;;;6.40;2.23;;;;;;;12.16;82.63;96524.63;5097551;28;20191;-80
2022/10/07 03:48:14;;;;;;;5.87;2.60;;;;;;;12.19;82.89;96520.91;5111754;28;20211;-79
2022/10/07 03:50:40;;;;;;;6.20;2.30;;;;;;;12.15;83.19;96515.16;5114412;28;20183;-79
2022/10/07 03:53:05;;;;;;;5.97;2.60;;;;;;;12.16;82.87;96518.59;5112745;28;20186;-79
2022/10/07 03:55:31;;;;;;;4.03;3.00;;;;;;;12.10;83.41;96521.72;5108058;28;20188;-80
2022/10/07 03:57:56;;;;;;;7.37;3.23;;;;;;;12.17;83.63;96518.44;5105514;28;20207;-78
2022/10/07 04:00:24;;;;;;;9.87;6.10;;;;;;;12.19;83.36;96510.50;5097709;28;20183;-79
2022/10/07 04:02:50;;;;;;;7.70;4.30;;;;;;;12.25;83.35;96517.78;5097528;28;20700;-79
2022/10/07 04:05:16;;;;;;;10.53;5.70;;;;;;;12.25;83.64;96507.38;5113938;28;20183;-79
2022/10/07 04:07:43;;;;;;;7.17;3.73;;;;;;;12.18;84.14;96508.84;5116068;27;20222;-80
2022/10/07 04:10:10;;;;;;;5.83;2.97;;;;;;;12.22;84.23;96512.03;5117858;27;20179;-80
2022/10/07 04:12:35;;;;;;;5.27;3.80;;;;;;;12.28;83.64;96514.06;5102074;27;20175;-80
2022/10/07 04:15:00;;;;;;;6.97;2.93;;;;;;;12.26;84.81;96505.59;5098733;27;20194;-79
2022/10/07 04:17:26;;;;;;;9.60;3.40;;;;;;;12.25;84.70;96502.16;5118583;27;20207;-80
2022/10/07 04:19:52;;;;;;;4.10;2.40;;;;;;;12.22;85.17;96499.00;5101518;27;20642;-80
2022/10/07 04:22:17;;;;;;;6.23;2.63;;;;;;;12.31;84.97;96496.41;5117263;27;20206;-80
2022/10/07 04:24:42;;;;;;;7.23;2.47;;;;;;;12.36;85.20;96493.41;5112877;27;20206;-81
2022/10/07 04:27:08;;;;;;;7.43;2.50;;;;;;;12.29;86.09;96484.50;5110846;27;20251;-80
2022/10/07 04:29:33;;;;;;;6.20;2.67;;;;;;;12.33;85.89;96485.88;5137278;27;20190;-80
2022/10/07 04:31:59;;;;;;;5.57;2.40;;;;;;;12.38;85.63;96484.50;5137405;27;20183;-80
2022/10/07 04:34:24;;;;;;;6.23;2.70;;;;;;;12.49;85.38;96486.16;5116962;27;21002;-80
2022/10/07 04:36:52;;;;;;;5.17;2.70;;;;;;;12.34;nan;96482.28;5115784;27;20660;-80
2022/10/07 04:39:17;;;;;;;7.93;2.43;;;;;;;12.43;86.04;96478.88;5133738;27;20175;-80
2022/10/07 04:41:43;;;;;;;8.00;2.57;;;;;;;12.42;86.59;96474.63;5101802;27;20393;-80
2022/10/07 04:44:08;;;;;;;6.20;2.63;;;;;;;12.42;86.72;96466.81;5106522;27;20191;-80
2022/10/07 04:46:33;;;;;;;6.47;2.90;;;;;;;12.35;87.22;96469.13;5136301;27;20179;-80
2022/10/07 04:48:59;;;;;;;7.33;2.70;;;;;;;12.48;87.36;96472.31;5118107;27;20246;-80
2022/10/07 04:51:24;;;;;;;7.83;2.80;;;;;;;12.40;88.08;96461.75;5101263;27;20187;-79
2022/10/07 04:53:51;;;;;;;5.43;2.40;;;;;;;12.43;88.21;96458.03;5099912;27;20190;-80
2022/10/07 04:56:18;;;;;;;8.27;2.70;;;;;;;12.45;88.20;96464.75;5109556;27;20183;-79
2022/10/07 04:58:43;;;;;;;4.90;2.70;;;;;;;12.44;88.22;96462.28;5100772;27;20282;-79
2022/10/07 05:01:08;;;;;;;5.67;2.80;;;;;;;12.51;88.19;96457.34;5100577;27;20919;-80
2022/10/07 05:03:35;;;;;;;9.87;2.90;;;;;;;12.49;89.01;96462.72;5100289;27;20573;-80
2022/10/07 05:06:02;;;;;;;6.17;3.00;;;;;;;12.51;89.09;96459.97;5097608;27;20547;-80
2022/10/07 05:08:28;;;;;;;9.10;3.20;;;;;;;12.57;88.76;96459.41;5116145;27;20206;-80
2022/10/07 05:10:58;;;;;;;6.27;3.27;;;;;;;12.51;89.81;96462.56;5135742;27;20370;-80
2022/10/07 05:13:25;;;;;;;5.27;3.20;;;;;;;12.59;89.00;96460.09;5089360;27;20183;-80
2022/10/07 05:15:55;;;;;;;12.73;3.50;;;;;;;12.67;88.73;96457.63;5099443;27;20199;-80
2022/10/07 05:18:21;;;;;;;4.70;3.20;;;;;;;12.67;89.20;96455.84;5102477;27;20207;-80
2022/10/07 05:20:47;;;;;;;5.27;3.43;;;;;;;12.62;89.46;96455.41;5101303;27;20183;-80
2022/10/07 05:23:18;;;;;;;4.83;2.87;;;;;;;12.60;89.31;96452.13;5136684;27;20203;-80
2022/10/07 05:25:43;;;;;;;5.50;3.90;;;;;;;12.67;89.74;96453.25;5111168;27;20193;-79
2022/10/07 05:28:10;;;;;;;7.00;4.60;;;;;;;12.68;90.24;96454.06;5106659;27;20718;-80
2022/10/07 05:30:35;;;;;;;9.43;5.50;;;;;;;12.74;90.30;96456.13;5117332;27;20707;-80
2022/10/07 05:33:01;;;;;;;6.30;4.43;;;;;;;12.74;90.45;96453.50;5117007;27;20179;-80
2022/10/07 05:35:26;;;;;;;12.60;6.13;;;;;;;12.78;90.74;96449.66;5117222;27;20198;-80
2022/10/07 05:37:52;;;;;;;10.70;5.30;;;;;;;12.76;91.22;96448.97;5103948;27;20203;-80
2022/10/07 05:40:18;;;;;;;9.00;6.77;;;;;;;12.85;90.88;96452.53;5087991;27;20194;-80
2022/10/07 05:42:44;;;;;;;8.47;5.90;;;;;;;12.86;90.69;96447.19;5116982;27;20209;-79
2022/10/07 05:45:09;;;;;;;8.03;5.93;;;;;;;12.81;91.37;96449.41;5110179;27;20183;-80
2022/10/07 05:47:35;;;;;;;11.63;5.53;;;;;;;12.97;90.64;96452.22;5134683;27;20207;-79
2022/10/07 05:50:00;;;;;;;10.03;6.50;;;;;;;12.89;90.96;96446.88;5116230;27;20171;-80
2022/10/07 05:52:25;;;;;;;11.40;6.80;;;;;;;12.93;90.99;96447.44;5113603;27;20179;-80
2022/10/07 05:54:51;;;;;;;10.87;7.20;;;;;;;13.01;90.68;96444.97;5111220;27;20179;-79
2022/10/07 05:57:16;;;;;;;9.70;6.20;;;;;;;12.96;91.18;96447.16;5106535;27;20601;-80
2022/10/07 05:59:42;;;;;;;9.20;6.83;;;;;;;13.15;90.65;96443.69;5099558;27;20187;-80
2022/10/07 06:02:13;;;;;;;10.60;7.13;;;;;;;13.12;90.96;96441.38;5116321;27;20558;-80
2022/10/07 06:04:38;;;;;;;10.47;6.97;;;;;;;13.18;90.59;96441.63;5097843;27;20208;-79
2022/10/07 06:07:04;;;;;;;15.43;7.60;;;;;;;13.25;89.86;96445.34;5112891;27;20202;-80
2022/10/07 06:14:58;;;;;;;10.60;6.53;;;;;;;13.32;89.95;96446.41;5118157;27;20609;-79
2022/10/07 06:17:23;;;;;;;11.30;7.27;;;;;;;13.19;90.46;96438.09;5117997;27;20257;-79
2022/10/07 06:19:48;;;;;;;11.40;6.77;;;;;;;13.41;89.54;96441.28;5116107;27;20557;-80
2022/10/07 06:22:14;;;;;;;14.27;7.97;;;;;;;13.27;90.09;96432.97;5116611;27;20775;-80
2022/10/07 06:24:39;;;;;;;9.20;7.40;;;;;;;13.39;89.74;96438.00;5115330;27;20670;-80
2022/10/07 06:27:06;;;;;;;14.13;7.97;;;;;;;13.35;89.41;96444.50;5090121;27;20226;-79
2022/10/07 06:29:31;;;;;;;10.00;7.03;;;;;;;13.56;88.65;96434.66;5095382;27;20179;-79
2022/10/07 06:31:56;;;;;;;10.10;7.50;;;;;;;13.65;88.27;96438.19;5111764;28;20740;-79
2022/10/07 06:34:21;;;;;;;12.50;7.57;;;;;;;13.69;87.75;96440.34;5098050;27;20183;-80
2022/10/07 06:36:47;;;;;;;12.07;7.40;;;;;;;13.71;87.58;96438.44;5096924;27;20181;-79
2022/10/07 06:39:12;;;;;;;12.17;7.97;;;;;;;13.69;87.61;96442.13;5098655;27;20213;-80
2022/10/07 06:41:37;;;;;;;8.23;6.57;;;;;;;13.84;86.99;96436.28;5115536;27;20183;-79
2022/10/07 06:44:03;;;;;;;14.83;7.70;;;;;;;13.61;88.11;96440.28;5125555;27;20689;-80
2022/10/07 06:46:28;;;;;;;14.40;7.63;;;;;;;13.76;87.57;96437.97;5111375;27;20268;-81
2022/10/07 06:48:53;;;;;;;13.17;7.13;;;;;;;13.76;87.29;96438.78;5096203;27;20190;-80
2022/10/07 06:51:19;;;;;;;9.83;7.13;;;;;;;13.96;86.51;96441.28;5109383;27;20175;-81
2022/10/07 06:53:45;;;;;;;11.77;7.70;;;;;;;13.97;86.34;96442.97;5109678;27;20171;-81
2022/10/07 06:56:13;;;;;;;11.43;7.07;;;;;;;14.03;86.48;96442.34;5108808;27;21026;-81
2022/10/07 06:58:38;;;;;;;10.20;7.33;;;;;;;14.15;86.07;96435.97;5113254;28;20547;-80
2022/10/07 07:01:04;;;;;;;10.30;7.33;;;;;;;14.04;85.83;96438.78;5113072;27;20190;-79
2022/10/07 07:03:30;;;;;;;10.67;7.20;;;;;;;14.25;85.06;96436.72;5098685;28;20195;-79
2022/10/07 07:05:55;;;;;;;11.63;7.63;;;;;;;14.19;85.47;96432.09;5113605;27;20221;-77
2022/10/07 07:08:23;;;;;;;9.10;6.63;;;;;;;14.57;84.04;96435.38;5112696;28;20223;-80
2022/10/07 07:10:48;;;;;;;11.30;7.50;;;;;;;14.75;82.51;96436.19;5114391;27;20192;-80
2022/10/07 07:13:14;;;;;;;9.47;7.07;;;;;;;14.81;82.65;96434.78;5084799;27;20188;-79
2022/10/07 07:15:40;;;;;;;13.17;8.87;;;;;;;14.72;82.61;96436.50;5096125;28;20198;-80
2022/10/07 07:18:07;;;;;;;12.90;7.97;;;;;;;15.07;81.42;96440.03;5097053;28;20777;-79
2022/10/07 07:20:34;;;;;;;9.10;6.85;;;;;;;14.92;81.95;96437.97;5093687;28;20236;-79
2022/10/07 07:23:09;;;;;;;11.10;6.47;;;;;;;15.20;81.13;96438.66;5112122;28;20202;-80
2022/10/07 07:25:37;;;;;;;8.75;6.97;;;;;;;15.27;80.84;96438.84;5112490;28;20272;-79
2022/10/07 07:28:03;;;;;;;10.60;7.22;;;;;;;15.53;79.74;96429.16;5112926;28;20272;-83
2022/10/07 07:30:29;;;;;;;11.95;6.85;;;;;;;15.59;78.69;96438.19;5115647;28;20232;-80
2022/10/07 07:32:56;;;;;;;7.95;6.95;;;;;;;15.74;78.00;96441.09;5100286;28;20175;-80
2022/10/07 07:35:21;;;;;;;12.90;7.03;;;;;;;15.87;78.13;96446.69;5115951;28;20595;-82
2022/10/07 07:37:47;;;;;;;10.48;6.00;;;;;;;15.55;79.00;96442.94;5113831;28;20198;-80
2022/10/07 07:40:12;;;;;;;11.45;6.95;;;;;;;15.92;77.14;96440.97;5129735;28;20175;-80
2022/10/07 07:42:37;;;;;;;8.32;5.88;;;;;;;15.82;77.23;96435.88;5114047;27;20253;-81
2022/10/07 07:45:03;;;;;;;14.15;6.45;;;;;;;15.81;78.00;96437.69;5102033;27;20175;-79
2022/10/07 07:47:29;;;;;;;12.43;6.15;;;;;;;15.79;77.48;96444.03;5108088;27;20229;-81
2022/10/07 07:49:54;;;;;;;10.05;6.25;;;;;;;16.02;77.08;96446.91;5102063;27;20175;-79
2022/10/07 07:52:19;;;;;;;10.55;6.25;;;;;;;15.99;76.75;96444.59;5091347;27;20187;-80
2022/10/07 07:54:46;;;;;;;10.15;5.70;;;;;;;16.33;75.84;96441.88;5099964;27;20634;-80
2022/10/07 07:57:11;;;;;;;11.90;6.20;;;;;;;16.28;74.95;96444.19;5097271;27;20298;-80
2022/10/07 07:59:37;;;;;;;8.27;5.90;;;;;;;16.29;74.71;96449.25;5113685;27;20195;-81
2022/10/07 08:02:03;;;;;;;11.25;6.10;;;;;;;16.48;74.68;96445.53;5116300;27;20856;-80
2022/10/07 08:04:29;;;;;;;9.43;5.80;;;;;;;16.51;74.38;96447.81;5099265;27;20696;-80
2022/10/07 08:06:55;;;;;;;7.40;5.20;;;;;;;16.67;74.55;96450.44;5095029;27;20218;-80
2022/10/07 08:09:20;;;;;;;6.60;5.50;;;;;;;16.58;74.17;96440.13;5117140;27;20179;-80
2022/10/07 08:11:46;;;;;;;8.55;5.40;;;;;;;16.84;74.21;96440.81;5098270;27;20282;-79
2022/10/07 08:14:12;;;;;;;9.20;5.05;;;;;;;17.06;72.79;96441.94;5134728;27;20179;-80
2022/10/07 08:16:37;;;;;;;5.85;5.05;;;;;;;16.89;73.31;96437.72;5132575;27;20194;-79
2022/10/07 08:19:03;;;;;;;7.45;5.05;;;;;;;16.86;73.28;96441.44;5099256;27;20199;-81
2022/10/07 08:21:32;;;;;;;8.07;4.75;;;;;;;16.99;72.98;96433.91;5099735;27;20182;-80
2022/10/07 08:23:59;;;;;;;7.22;5.45;;;;;;;16.92;72.75;96432.13;5090117;27;20179;-80
2022/10/07 08:26:25;;;;;;;5.57;4.85;;;;;;;17.39;71.35;96441.88;5115820;27;20365;-80
2022/10/07 08:28:50;;;;;;;8.65;5.28;;;;;;;17.42;70.48;96439.75;5121230;27;20574;-80
2022/10/07 08:31:17;;;;;;;5.90;4.90;;;;;;;17.84;68.56;96433.38;5112491;27;20187;-81
2022/10/07 08:33:44;;;;;;;6.18;4.97;;;;;;;17.91;68.61;96434.34;5115579;27;20653;-82
2022/10/07 08:36:12;;;;;;;8.93;5.43;;;;;;;17.95;68.94;96432.19;5112188;27;20209;-83
2022/10/07 08:38:39;;;;;;;6.32;4.90;;;;;;;17.97;69.70;96428.41;5095515;27;20294;-83
2022/10/07 08:41:07;;;;;;;7.63;4.90;;;;;;;17.77;69.71;96442.94;5104612;27;20186;-81
2022/10/07 08:43:33;;;;;;;7.80;3.92;;;;;;;17.37;71.13;96435.97;5134405;27;20195;-82
2022/10/07 08:46:00;;;;;;;8.00;4.35;;;;;;;17.27;71.44;96434.38;5098715;27;20224;-83
2022/10/07 08:48:29;;;;;;;5.28;3.88;;;;;;;17.77;70.41;96425.38;5116618;27;20199;-83
2022/10/07 08:51:08;;;;;;;6.60;4.20;;;;;;;17.93;70.17;96426.28;5086933;27;20309;-82
2022/10/07 08:53:35;;;;;;;8.45;4.20;;;;;;;17.74;69.68;96423.06;5096536;28;20595;-84
2022/10/07 08:56:07;;;;;;;7.40;4.30;;;;;;;17.83;69.47;96422.03;5098272;27;20183;-82
2022/10/07 08:58:50;;;;;;;6.15;4.30;;;;;;;18.02;68.20;96419.97;5111030;27;20339;-81
2022/10/07 09:01:38;;;;;;;8.88;4.63;;;;;;;17.69;70.21;96414.88;5129410;27;20203;-82
2022/10/07 09:04:16;;;;;;;9.30;4.15;;;;;;;17.82;69.55;96409.09;5121705;27;20175;-82
2022/10/07 09:06:46;;;;;;;8.05;4.43;;;;;;;18.04;68.76;96413.59;5115905;27;20187;-79
2022/10/07 09:10:14;;;;;;;;;;;;;;;;;;;;;
2022/10/07 09:12:47;;;;;;;8.98;4.38;;;;;;;18.11;69.05;96408.47;4983092;28;20198;-80
2022/10/07 09:15:33;;;;;;;7.90;4.55;;;;;;;17.88;68.76;96410.22;4972040;28;20204;-79
2022/10/07 09:18:05;;;;;;;8.00;5.07;;;;;;;18.01;68.30;96408.66;4982961;28;20421;-79
2022/10/07 09:20:38;;;;;;;7.53;4.75;;;;;;;17.69;69.11;96404.38;4995914;28;20194;-78
2022/10/07 09:23:05;;;;;;;6.10;3.78;;;;;;;17.94;68.84;96399.03;4987735;28;20226;-78
2022/10/07 09:25:32;;;;;;;8.93;4.60;;;;;;;18.08;68.18;96400.91;4985126;28;20439;-79
2022/10/07 09:27:58;;;;;;;8.13;4.78;;;;;;;17.79;69.34;96399.75;4979190;28;20215;-78
2022/10/07 09:30:26;;;;;;;7.57;4.45;;;;;;;17.72;69.87;96398.78;4996653;28;20190;-78
2022/10/07 09:32:53;;;;;;;8.35;4.25;;;;;;;17.76;69.89;96396.66;4996174;28;20179;-79
2022/10/07 09:35:21;;;;;;;6.65;4.03;;;;;;;17.41;71.55;96396.09;4992691;28;20230;-78
2022/10/07 09:37:56;;;;;;;8.02;4.43;;;;;;;17.65;70.13;96386.47;4995207;28;20217;-78
2022/10/07 09:41:13;;;;;;;8.00;4.63;;;;;;;17.61;70.28;96383.38;4986933;28;20386;-78
2022/10/07 09:43:22;;;;;;;8.77;4.20;;;;;;;17.73;69.95;96383.84;4995457;28;20268;-79
2022/10/07 09:45:47;;;;;;;7.88;4.13;;;;;;;17.90;69.33;96374.88;4960551;28;20200;-80
2022/10/07 09:48:20;;;;;;;5.53;4.43;;;;;;;17.77;69.52;96375.47;5047793;28;20758;-79
2022/10/07 09:50:46;;;;;;;5.95;4.32;;;;;;;17.95;69.38;96377.84;5080253;28;20184;-79
2022/10/07 09:53:22;;;;;;;8.70;4.55;;;;;;;18.19;68.87;96374.22;5083320;28;20185;-79
2022/10/07 09:55:49;;;;;;;7.03;3.95;;;;;;;18.20;68.51;96375.88;5082950;28;20188;-79
2022/10/07 09:58:25;;;;;;;5.75;4.50;;;;;;;18.03;69.79;96374.34;5097744;28;20211;-78
2022/10/07 10:00:53;;;;;;;5.10;4.43;;;;;;;18.37;68.96;96377.38;5097522;28;20185;-80
2022/10/07 10:03:18;;;;;;;7.55;4.10;;;;;;;18.40;67.03;96384.94;5076328;28;20271;-80
2022/10/07 10:05:56;;;;;;;7.10;4.57;;;;;;;17.98;68.09;96377.47;5081470;28;20192;-79
2022/10/07 10:08:33;;;;;;;9.52;5.03;;;;;;;18.26;68.15;96369.91;5092862;28;20564;-80
2022/10/07 10:11:01;;;;;;;7.63;4.65;;;;;;;18.34;68.44;96376.91;5068840;28;20184;-80
2022/10/07 10:13:38;;;;;;;11.15;4.63;;;;;;;18.32;68.97;96369.22;5074187;28;20173;-79
2022/10/07 10:16:27;;;;;;;10.48;4.85;;;;;;;18.25;68.83;96368.25;5065933;28;20173;-80
2022/10/07 10:19:16;;;;;;;8.70;4.82;;;;;;;18.27;68.11;96370.72;5075258;28;20266;-79
2022/10/07 10:21:41;;;;;;;9.70;4.28;;;;;;;18.29;68.54;96361.69;5065057;28;20683;-80
2022/10/07 10:24:12;;;;;;;9.65;5.03;;;;;;;18.06;68.95;96361.66;5080978;28;20215;-79
2022/10/07 10:27:00;;;;;;;8.32;4.80;;;;;;;18.18;68.35;96356.81;5065467;28;20275;-80
2022/10/07 10:29:45;;;;;;;7.78;4.68;;;;;;;17.75;70.40;96360.84;5074274;28;20230;-80
2022/10/07 10:32:16;;;;;;;8.32;5.13;;;;;;;17.77;69.50;96356.25;5055569;28;20268;-79
2022/10/07 10:35:02;;;;;;;6.20;4.40;;;;;;;17.38;71.18;96358.84;5058401;28;20656;-80
2022/10/07 10:37:30;;;;;;;11.48;5.40;;;;;;;17.50;70.98;96350.44;5066839;28;20215;-79
2022/10/07 10:40:23;;;;;;;10.68;4.97;;;;;;;17.20;71.88;96343.31;5081769;28;20181;-80
2022/10/07 10:43:21;;;;;;;8.52;4.57;;;;;;;17.42;72.70;96344.41;5054498;28;20208;-80
2022/10/07 10:46:34;;;;;;;9.27;4.40;;;;;;;17.63;71.60;96336.75;5037099;28;20794;-80
2022/10/07 10:49:10;;;;;;;8.98;4.50;;;;;;;17.13;74.04;96335.31;4995881;28;20230;-80
2022/10/07 10:52:10;;;;;;;11.60;4.28;;;;;;;17.53;72.20;96330.91;5007288;28;20194;-80
2022/10/07 10:55:16;;;;;;;12.93;5.35;;;;;;;17.37;72.06;96330.97;5006304;28;20198;-80
2022/10/07 10:57:55;;;;;;;8.25;4.43;;;;;;;17.39;72.92;96328.97;5006164;28;20214;-80
2022/10/07 11:00:21;;;;;;;11.98;5.18;;;;;;;17.41;72.47;96327.84;5012794;28;20682;-80
2022/10/07 11:03:02;;;;;;;10.07;4.75;;;;;;;17.43;72.66;96330.28;5027824;28;20214;-80
2022/10/07 11:05:31;;;;;;;8.93;5.13;;;;;;;17.46;72.76;96320.25;4999496;28;20678;-79
2022/10/07 11:08:22;;;;;;;13.18;4.60;;;;;;;17.34;72.20;96318.19;4999071;28;20223;-78
2022/10/07 11:10:49;;;;;;;8.55;4.15;;;;;;;16.97;73.85;96307.34;4990305;28;20192;-79
2022/10/07 11:13:35;;;;;;;8.05;4.22;;;;;;;17.51;71.43;96317.13;4981179;28;20195;-80
2022/10/07 11:16:23;;;;;;;7.55;4.05;;;;;;;17.75;72.65;96313.56;4968378;28;20622;-79
2022/10/07 11:18:54;;;;;;;5.82;4.63;;;;;;;17.64;71.37;96311.31;5001465;28;20209;-80
2022/10/07 11:21:24;;;;;;;5.35;4.28;;;;;;;17.70;70.92;96308.03;5060851;28;20664;-79
2022/10/07 11:24:14;;;;;;;10.27;5.05;;;;;;;17.54;72.26;96306.28;5066323;28;20197;-79
2022/10/07 11:27:28;;;;;;;12.95;5.00;;;;;;;17.82;70.95;96299.56;5072658;28;20583;-79
2022/10/07 11:29:59;;;;;;;9.77;4.22;;;;;;;17.89;69.53;96293.63;5012948;28;20209;-78
2022/10/07 11:32:41;;;;;;;7.85;4.43;;;;;;;18.14;69.04;96291.63;4983111;28;20543;-79
2022/10/07 11:35:16;;;;;;;10.48;4.65;;;;;;;18.29;68.18;96289.88;5006643;28;20190;-78
2022/10/07 11:37:46;;;;;;;7.82;4.63;;;;;;;18.20;68.36;96293.53;5019604;28;20716;-79
2022/10/07 11:40:11;;;;;;;8.30;4.00;;;;;;;18.52;67.63;96284.56;5017417;28;20195;-80
2022/10/07 11:42:41;;;;;;;7.20;4.30;;;;;;;18.59;66.97;96274.97;5010984;28;20283;-80
2022/10/07 11:45:17;;;;;;;6.03;3.90;;;;;;;18.50;66.99;96276.03;5001609;28;20182;-79
2022/10/07 11:47:49;;;;;;;9.27;4.00;;;;;;;18.62;66.83;96266.69;5026721;28;20365;-79
2022/10/07 11:50:19;;;;;;;9.70;4.00;;;;;;;18.69;67.44;96272.91;4999796;28;20195;-79
2022/10/07 11:52:47;;;;;;;6.75;4.38;;;;;;;18.56;66.18;96270.06;5035315;28;20191;-79